aviador You're here:

OIIP Decoded Metar

KARAJ/PAYAM in IRAN
Report Time2018-01-19 05:00:00
UTC Time2018-01-19 05:36:19
Flight Rules vfr VFR
Wind140° at 04 kt
W.Decomp.*RWY 12: 3.8 kt HW 1.2 kt RCW
W.Rank140° ranks 4
Current wind is below 140° avg. (8.6)
Visibility9999 m
Phenomena:N/A
Clouds:N/A
Expected CloudBase > 4,400 ft AGL from Temp-Dew spread
CeilingNone
Temp02°C (ISA -5)
Dew Point-9°C (44% RH)
AAT-2.4°C
QNH1015 hPa
Density Alt3,586 ft
Elevation4,170 ft
Report Wrong Elevation
Raw Report
METAR OIIP 190500Z 14004KT CAVOK 02/M09 Q1015=

Extra information for OIIP:More info

Metar Taf Metar & Taf Last 4 Metars F.Rules Stats Wind Profile Meteogram Temp Stats Airport Information Weather charts Add Link Nearby VenuesMetar ALERT Operation Metar Decoded Social comments